ARG1218 SABE-SBFL
Flight info
| Callsign | ARG1218 |
|---|---|
| Flight time | 1h 36m |
| Altitude | 37000 |
| Route | DORVO8 DORVO UN857 ITBEB UM540 DADMO |
| Aircraft | B38M/M-MSDFGHILORVW/SB1 |
Departure
| Time | 2026-04-09 22:30 |
|---|---|
| Airport | Aeroparque Jorge Newbery (SABE) |
Arrival
| Time | 2026-04-10 00:06 |
|---|---|
| Airport | Hercílio Luz International Airport (SBFL) |
| Time | Latitude | Longitude | Altitude | Speed | Heading |
|---|---|---|---|---|---|
| 2026-04-09 21:54 | -34.55765 | -58.41523 | 28 ft | 0 kts | 207° |
| 2026-04-09 22:16 | -34.55756 | -58.41517 | 28 ft | 4 kts | 207° |
| 2026-04-09 22:16 | -34.55734 | -58.41500 | 28 ft | 4 kts | 233° |
| 2026-04-09 22:17 | -34.55732 | -58.41482 | 28 ft | 3 kts | 297° |
| 2026-04-09 22:17 | -34.55743 | -58.41457 | 28 ft | 1 kts | 297° |
| 2026-04-09 22:21 | -34.55742 | -58.41460 | 28 ft | 2 kts | 297° |
| 2026-04-09 22:21 | -34.55721 | -58.41522 | 28 ft | 10 kts | 273° |
| 2026-04-09 22:22 | -34.55773 | -58.41589 | 28 ft | 10 kts | 210° |
| 2026-04-09 22:22 | -34.55774 | -58.41663 | 28 ft | 11 kts | 297° |
| 2026-04-09 22:22 | -34.55735 | -58.41755 | 28 ft | 14 kts | 297° |
| 2026-04-09 22:22 | -34.55685 | -58.41847 | 28 ft | 11 kts | 304° |
| 2026-04-09 22:23 | -34.55640 | -58.41929 | 28 ft | 13 kts | 303° |
| 2026-04-09 22:23 | -34.55585 | -58.42027 | 28 ft | 15 kts | 304° |
| 2026-04-09 22:23 | -34.55519 | -58.42135 | 28 ft | 13 kts | 307° |
| 2026-04-09 22:23 | -34.55464 | -58.42223 | 28 ft | 14 kts | 307° |
| 2026-04-09 22:24 | -34.55401 | -58.42324 | 28 ft | 10 kts | 307° |
| 2026-04-09 22:24 | -34.55376 | -58.42367 | 28 ft | 1 kts | 297° |
| 2026-04-09 22:25 | -34.55369 | -58.42396 | 28 ft | 9 kts | 281° |
| 2026-04-09 22:25 | -34.55368 | -58.42485 | 28 ft | 11 kts | 234° |
| 2026-04-09 22:26 | -34.55413 | -58.42496 | 28 ft | 7 kts | 134° |
| 2026-04-09 22:26 | -34.55421 | -58.42482 | 28 ft | 0 kts | 124° |
| 2026-04-09 22:29 | -34.55436 | -58.42455 | 28 ft | 13 kts | 124° |
| 2026-04-09 22:29 | -34.55641 | -58.42084 | 29 ft | 96 kts | 124° |
| 2026-04-09 22:29 | -34.56153 | -58.41165 | 36 ft | 163 kts | 122° |
| 2026-04-09 22:30 | -34.56787 | -58.39988 | 763 ft | 168 kts | 123° |
| 2026-04-09 22:30 | -34.57399 | -58.38784 | 1542 ft | 174 kts | 117° |
| 2026-04-09 22:30 | -34.57722 | -58.37278 | 1986 ft | 198 kts | 91° |
| 2026-04-09 22:30 | -34.57238 | -58.35616 | 2315 ft | 230 kts | 51° |
| 2026-04-09 22:31 | -34.55837 | -58.34497 | 2899 ft | 245 kts | 20° |
| 2026-04-09 22:31 | -34.54299 | -58.33580 | 3872 ft | 255 kts | 39° |
| 2026-04-09 22:31 | -34.53115 | -58.31907 | 4522 ft | 270 kts | 63° |
| 2026-04-09 22:31 | -34.52692 | -58.29712 | 4714 ft | 269 kts | 96° |
| 2026-04-09 22:32 | -34.53212 | -58.27555 | 4882 ft | 268 kts | 115° |
| 2026-04-09 22:32 | -34.53806 | -58.25421 | 4992 ft | 271 kts | 107° |
| 2026-04-09 22:32 | -34.54320 | -58.23217 | 5108 ft | 272 kts | 108° |
| 2026-04-09 22:32 | -34.54845 | -58.21013 | 5144 ft | 272 kts | 108° |
| 2026-04-09 22:33 | -34.55378 | -58.18806 | 5148 ft | 272 kts | 108° |
| 2026-04-09 22:33 | -34.55914 | -58.16600 | 5149 ft | 273 kts | 108° |
| 2026-04-09 22:33 | -34.56454 | -58.14388 | 5147 ft | 273 kts | 108° |
| 2026-04-09 22:33 | -34.56995 | -58.12170 | 5134 ft | 273 kts | 108° |
| 2026-04-09 22:34 | -34.57534 | -58.09964 | 5134 ft | 273 kts | 108° |
| 2026-04-09 22:34 | -34.58074 | -58.07754 | 5133 ft | 273 kts | 108° |
| 2026-04-09 22:34 | -34.58615 | -58.05538 | 5133 ft | 273 kts | 108° |
| 2026-04-09 22:34 | -34.59146 | -58.03361 | 5131 ft | 273 kts | 108° |
| 2026-04-09 22:35 | -34.59685 | -58.01152 | 5131 ft | 273 kts | 108° |
| 2026-04-09 22:35 | -34.60223 | -57.98941 | 5136 ft | 272 kts | 108° |
| 2026-04-09 22:35 | -34.60758 | -57.96742 | 5132 ft | 272 kts | 108° |
| 2026-04-09 22:35 | -34.61294 | -57.94541 | 5134 ft | 272 kts | 108° |
| 2026-04-09 22:36 | -34.61829 | -57.92334 | 5132 ft | 272 kts | 108° |
| 2026-04-09 22:36 | -34.62365 | -57.90128 | 5130 ft | 273 kts | 108° |
| 2026-04-09 22:36 | -34.62902 | -57.87912 | 5131 ft | 274 kts | 108° |
| 2026-04-09 22:36 | -34.63440 | -57.85694 | 5133 ft | 274 kts | 108° |
| 2026-04-09 22:37 | -34.63977 | -57.83473 | 5133 ft | 274 kts | 108° |
| 2026-04-09 22:37 | -34.64514 | -57.81254 | 5131 ft | 274 kts | 108° |
| 2026-04-09 22:37 | -34.65051 | -57.79032 | 5131 ft | 274 kts | 108° |
| 2026-04-09 22:37 | -34.65586 | -57.76812 | 5130 ft | 274 kts | 108° |
| 2026-04-09 22:38 | -34.66122 | -57.74591 | 5131 ft | 274 kts | 108° |
| 2026-04-09 22:38 | -34.66659 | -57.72366 | 5132 ft | 274 kts | 108° |
| 2026-04-09 22:38 | -34.67188 | -57.70169 | 5130 ft | 274 kts | 108° |
| 2026-04-09 22:38 | -34.67722 | -57.67945 | 5127 ft | 274 kts | 108° |
| 2026-04-09 22:39 | -34.68257 | -57.65721 | 5131 ft | 274 kts | 108° |
| 2026-04-09 22:39 | -34.68791 | -57.63497 | 5128 ft | 275 kts | 107° |
| 2026-04-09 22:39 | -34.69332 | -57.61243 | 5135 ft | 277 kts | 107° |
| 2026-04-09 22:39 | -34.69869 | -57.59003 | 5137 ft | 276 kts | 108° |
| 2026-04-09 22:40 | -34.70405 | -57.56767 | 5142 ft | 275 kts | 108° |
| 2026-04-09 22:40 | -34.70931 | -57.54563 | 5132 ft | 274 kts | 107° |
| 2026-04-09 22:40 | -34.71081 | -57.52259 | 5098 ft | 276 kts | 81° |
| 2026-04-09 22:40 | -34.70360 | -57.50101 | 5140 ft | 278 kts | 56° |
| 2026-04-09 22:41 | -34.69154 | -57.48242 | 5134 ft | 280 kts | 51° |
| 2026-04-09 22:41 | -34.67924 | -57.46411 | 5134 ft | 280 kts | 51° |
| 2026-04-09 22:41 | -34.66684 | -57.44584 | 5132 ft | 280 kts | 51° |
| 2026-04-09 22:41 | -34.65441 | -57.42765 | 5129 ft | 280 kts | 50° |
| 2026-04-09 22:42 | -34.64195 | -57.40949 | 5128 ft | 280 kts | 50° |
| 2026-04-09 22:42 | -34.62959 | -57.39153 | 5129 ft | 280 kts | 50° |
| 2026-04-09 22:42 | -34.61713 | -57.37344 | 5130 ft | 279 kts | 49° |
| 2026-04-09 22:42 | -34.60468 | -57.35540 | 5128 ft | 279 kts | 49° |
| 2026-04-09 22:43 | -34.59216 | -57.33724 | 5130 ft | 280 kts | 49° |
| 2026-04-09 22:43 | -34.57963 | -57.31911 | 5164 ft | 282 kts | 49° |
| 2026-04-09 22:43 | -34.56703 | -57.30086 | 5955 ft | 281 kts | 50° |
| 2026-04-09 22:43 | -34.55436 | -57.28251 | 6923 ft | 287 kts | 50° |
| 2026-04-09 22:44 | -34.54154 | -57.26399 | 7782 ft | 293 kts | 50° |
| 2026-04-09 22:44 | -34.52835 | -57.24493 | 8710 ft | 298 kts | 51° |
| 2026-04-09 22:44 | -34.51488 | -57.22549 | 9612 ft | 304 kts | 51° |
| 2026-04-09 22:44 | -34.50119 | -57.20572 | 10459 ft | 311 kts | 51° |
| 2026-04-09 22:45 | -34.48688 | -57.18509 | 10957 ft | 329 kts | 51° |
| 2026-04-09 22:45 | -34.47178 | -57.16332 | 11512 ft | 344 kts | 51° |
| 2026-04-09 22:45 | -34.45620 | -57.14088 | 12282 ft | 349 kts | 51° |
| 2026-04-09 22:45 | -34.44045 | -57.11820 | 13136 ft | 354 kts | 51° |
| 2026-04-09 22:46 | -34.42440 | -57.09512 | 13976 ft | 359 kts | 51° |
| 2026-04-09 22:46 | -34.40819 | -57.07180 | 14719 ft | 364 kts | 51° |
| 2026-04-09 22:46 | -34.39173 | -57.04814 | 15501 ft | 368 kts | 51° |
| 2026-04-09 22:46 | -34.37535 | -57.02463 | 16262 ft | 372 kts | 51° |
| 2026-04-09 22:47 | -34.35858 | -57.00056 | 17011 ft | 376 kts | 52° |
| 2026-04-09 22:47 | -34.34167 | -56.97631 | 17765 ft | 379 kts | 52° |
| 2026-04-09 22:47 | -34.32453 | -56.95175 | 18479 ft | 383 kts | 52° |
| 2026-04-09 22:47 | -34.30723 | -56.92697 | 19090 ft | 387 kts | 52° |
| 2026-04-09 22:48 | -34.28982 | -56.90206 | 19720 ft | 389 kts | 52° |
| 2026-04-09 22:48 | -34.27224 | -56.87691 | 20342 ft | 392 kts | 52° |
| 2026-04-09 22:48 | -34.25450 | -56.85159 | 20965 ft | 395 kts | 52° |
| 2026-04-09 22:48 | -34.23665 | -56.82616 | 21562 ft | 399 kts | 52° |
| 2026-04-09 22:49 | -34.21854 | -56.80035 | 22083 ft | 404 kts | 52° |
| 2026-04-09 22:49 | -34.20031 | -56.77439 | 22728 ft | 406 kts | 52° |
| 2026-04-09 22:49 | -34.18190 | -56.74819 | 23324 ft | 410 kts | 52° |
| 2026-04-09 22:49 | -34.16267 | -56.72084 | 23913 ft | 413 kts | 52° |
| 2026-04-09 22:50 | -34.14415 | -56.69453 | 24419 ft | 416 kts | 52° |
| 2026-04-09 22:50 | -34.12487 | -56.66716 | 24942 ft | 418 kts | 52° |
| 2026-04-09 22:50 | -34.10597 | -56.64035 | 25448 ft | 421 kts | 52° |
| 2026-04-09 22:50 | -34.08687 | -56.61328 | 25925 ft | 424 kts | 52° |
| 2026-04-09 22:51 | -34.06762 | -56.58601 | 26418 ft | 427 kts | 52° |
| 2026-04-09 22:51 | -34.04828 | -56.55865 | 26892 ft | 430 kts | 51° |
| 2026-04-09 22:51 | -34.02879 | -56.53109 | 27257 ft | 435 kts | 51° |
| 2026-04-09 22:51 | -34.00908 | -56.50323 | 27754 ft | 437 kts | 51° |
| 2026-04-09 22:52 | -33.98928 | -56.47526 | 28213 ft | 440 kts | 51° |
| 2026-04-09 22:52 | -33.96932 | -56.44710 | 28642 ft | 443 kts | 51° |
| 2026-04-09 22:52 | -33.94923 | -56.41879 | 29082 ft | 446 kts | 51° |
| 2026-04-09 22:52 | -33.92898 | -56.39026 | 29503 ft | 449 kts | 51° |
| 2026-04-09 22:53 | -33.90864 | -56.36162 | 29927 ft | 452 kts | 51° |
| 2026-04-09 22:53 | -33.88817 | -56.33285 | 30312 ft | 454 kts | 51° |
| 2026-04-09 22:53 | -33.86747 | -56.30396 | 30660 ft | 457 kts | 51° |
| 2026-04-09 22:53 | -33.84660 | -56.27485 | 30934 ft | 462 kts | 50° |
| 2026-04-09 22:54 | -33.82572 | -56.24570 | 31192 ft | 466 kts | 50° |
| 2026-04-09 22:54 | -33.80446 | -56.21605 | 31552 ft | 468 kts | 50° |
| 2026-04-09 22:54 | -33.78317 | -56.18621 | 31840 ft | 472 kts | 50° |
| 2026-04-09 22:54 | -33.76174 | -56.15619 | 32160 ft | 474 kts | 50° |
| 2026-04-09 22:55 | -33.74019 | -56.12604 | 32476 ft | 477 kts | 50° |
| 2026-04-09 22:55 | -33.71847 | -56.09566 | 32773 ft | 480 kts | 50° |
| 2026-04-09 22:55 | -33.69663 | -56.06514 | 33091 ft | 483 kts | 50° |
| 2026-04-09 22:55 | -33.67456 | -56.03434 | 33387 ft | 486 kts | 50° |
| 2026-04-09 22:56 | -33.65248 | -56.00355 | 33684 ft | 489 kts | 50° |
| 2026-04-09 22:56 | -33.63024 | -55.97255 | 33983 ft | 491 kts | 50° |
| 2026-04-09 22:56 | -33.60792 | -55.94148 | 34288 ft | 493 kts | 49° |
| 2026-04-09 22:56 | -33.58576 | -55.91066 | 34610 ft | 493 kts | 49° |
| 2026-04-09 22:57 | -33.56305 | -55.87911 | 34917 ft | 494 kts | 49° |
| 2026-04-09 22:57 | -33.54084 | -55.84826 | 35217 ft | 495 kts | 49° |
| 2026-04-09 22:57 | -33.51827 | -55.81695 | 35515 ft | 496 kts | 49° |
| 2026-04-09 22:57 | -33.49574 | -55.78571 | 35807 ft | 497 kts | 49° |
| 2026-04-09 22:58 | -33.47310 | -55.75434 | 36030 ft | 499 kts | 47° |
| 2026-04-09 22:58 | -33.45020 | -55.72265 | 36098 ft | 506 kts | 47° |
| 2026-04-09 22:58 | -33.42714 | -55.69078 | 36385 ft | 506 kts | 47° |
| 2026-04-09 22:58 | -33.40408 | -55.65892 | 36667 ft | 506 kts | 47° |
| 2026-04-09 22:59 | -33.38097 | -55.62703 | 36946 ft | 507 kts | 47° |
| 2026-04-09 22:59 | -33.35805 | -55.59542 | 37139 ft | 508 kts | 47° |
| 2026-04-09 22:59 | -33.31169 | -55.53158 | 37115 ft | 506 kts | 47° |
| 2026-04-09 23:00 | -33.27323 | -55.47870 | 37121 ft | 507 kts | 47° |
| 2026-04-09 23:00 | -33.22678 | -55.41494 | 37132 ft | 508 kts | 46° |
| 2026-04-09 23:01 | -33.18038 | -55.35136 | 37123 ft | 508 kts | 46° |
| 2026-04-09 23:01 | -33.13395 | -55.28785 | 37125 ft | 508 kts | 46° |
| 2026-04-09 23:02 | -33.08744 | -55.22435 | 37107 ft | 508 kts | 46° |
| 2026-04-09 23:02 | -33.04086 | -55.16085 | 37112 ft | 512 kts | 46° |
| 2026-04-09 23:03 | -32.99383 | -55.09685 | 37121 ft | 512 kts | 46° |
| 2026-04-09 23:03 | -32.94687 | -55.03307 | 37117 ft | 512 kts | 46° |
| 2026-04-09 23:04 | -32.89981 | -54.96927 | 37115 ft | 513 kts | 45° |
| 2026-04-09 23:04 | -32.85254 | -54.90528 | 37116 ft | 513 kts | 45° |
| 2026-04-09 23:05 | -32.80569 | -54.84198 | 37119 ft | 513 kts | 45° |
| 2026-04-09 23:05 | -32.75844 | -54.77825 | 37117 ft | 513 kts | 45° |
| 2026-04-09 23:06 | -32.71117 | -54.71460 | 37115 ft | 514 kts | 45° |
| 2026-04-09 23:06 | -32.66358 | -54.65063 | 37107 ft | 518 kts | 45° |
| 2026-04-09 23:07 | -32.59179 | -54.55434 | 37114 ft | 518 kts | 45° |
| 2026-04-09 23:08 | -32.54423 | -54.49070 | 37114 ft | 519 kts | 44° |
| 2026-04-09 23:08 | -32.49630 | -54.42666 | 37117 ft | 519 kts | 44° |
| 2026-04-09 23:09 | -32.44832 | -54.36265 | 37112 ft | 519 kts | 44° |
| 2026-04-09 23:09 | -32.40021 | -54.29857 | 37112 ft | 519 kts | 44° |
| 2026-04-09 23:10 | -32.35247 | -54.23509 | 37117 ft | 519 kts | 45° |
| 2026-04-09 23:10 | -32.30492 | -54.17059 | 37072 ft | 520 kts | 45° |
| 2026-04-09 23:11 | -32.25715 | -54.10591 | 37096 ft | 524 kts | 44° |
| 2026-04-09 23:11 | -32.20909 | -54.04095 | 37102 ft | 524 kts | 44° |
| 2026-04-09 23:12 | -32.16111 | -53.97622 | 37107 ft | 524 kts | 44° |
| 2026-04-09 23:12 | -32.11296 | -53.91137 | 37110 ft | 525 kts | 44° |
| 2026-04-09 23:13 | -32.06502 | -53.84690 | 37121 ft | 525 kts | 44° |
| 2026-04-09 23:13 | -32.01684 | -53.78225 | 37118 ft | 525 kts | 44° |
| 2026-04-09 23:14 | -31.96858 | -53.71760 | 37105 ft | 525 kts | 44° |
| 2026-04-09 23:14 | -31.92021 | -53.65293 | 37119 ft | 526 kts | 44° |
| 2026-04-09 23:15 | -31.87172 | -53.58820 | 37120 ft | 529 kts | 44° |
| 2026-04-09 23:15 | -31.82297 | -53.52323 | 37114 ft | 529 kts | 44° |
| 2026-04-09 23:16 | -31.77421 | -53.45836 | 37115 ft | 529 kts | 44° |
| 2026-04-09 23:16 | -31.72542 | -53.39358 | 37118 ft | 529 kts | 44° |
| 2026-04-09 23:17 | -31.67656 | -53.32880 | 37122 ft | 529 kts | 44° |
| 2026-04-09 23:17 | -31.62806 | -53.26460 | 37119 ft | 529 kts | 44° |
| 2026-04-09 23:18 | -31.57921 | -53.20007 | 37117 ft | 529 kts | 44° |
| 2026-04-09 23:18 | -31.53020 | -53.13543 | 37113 ft | 529 kts | 44° |
| 2026-04-09 23:19 | -31.48118 | -53.07088 | 37112 ft | 533 kts | 43° |
| 2026-04-09 23:19 | -31.43177 | -53.00594 | 37112 ft | 533 kts | 43° |
| 2026-04-09 23:20 | -31.38240 | -52.94115 | 37118 ft | 533 kts | 43° |
| 2026-04-09 23:20 | -31.33292 | -52.87631 | 37120 ft | 534 kts | 43° |
| 2026-04-09 23:21 | -31.28372 | -52.81193 | 37112 ft | 534 kts | 43° |
| 2026-04-09 23:21 | -31.23422 | -52.74723 | 37111 ft | 534 kts | 43° |
| 2026-04-09 23:22 | -31.18459 | -52.68255 | 37110 ft | 533 kts | 43° |
| 2026-04-09 23:22 | -31.13503 | -52.61805 | 37104 ft | 533 kts | 43° |
| 2026-04-09 23:23 | -31.08529 | -52.55345 | 37114 ft | 536 kts | 43° |
| 2026-04-09 23:23 | -31.03538 | -52.48872 | 37102 ft | 537 kts | 42° |
| 2026-04-09 23:24 | -30.98567 | -52.42437 | 37110 ft | 537 kts | 42° |
| 2026-04-09 23:24 | -30.93564 | -52.35970 | 37105 ft | 537 kts | 42° |
| 2026-04-09 23:25 | -30.88535 | -52.29546 | 37104 ft | 536 kts | 41° |
| 2026-04-09 23:25 | -30.83441 | -52.23184 | 37108 ft | 536 kts | 41° |
| 2026-04-09 23:26 | -30.78352 | -52.16819 | 37106 ft | 536 kts | 41° |
| 2026-04-09 23:26 | -30.73298 | -52.10507 | 37111 ft | 536 kts | 41° |
| 2026-04-09 23:27 | -30.68201 | -52.04160 | 37112 ft | 539 kts | 41° |
| 2026-04-09 23:27 | -30.63078 | -51.97795 | 37097 ft | 538 kts | 41° |
| 2026-04-09 23:28 | -30.57948 | -51.91430 | 37109 ft | 539 kts | 41° |
| 2026-04-09 23:28 | -30.52852 | -51.85120 | 37109 ft | 538 kts | 40° |
| 2026-04-09 23:29 | -30.47720 | -51.78774 | 37097 ft | 538 kts | 40° |
| 2026-04-09 23:29 | -30.42681 | -51.72326 | 37091 ft | 539 kts | 43° |
| 2026-04-09 23:30 | -30.37731 | -51.65858 | 37097 ft | 539 kts | 42° |
| 2026-04-09 23:30 | -30.32732 | -51.59353 | 37062 ft | 540 kts | 42° |
| 2026-04-09 23:31 | -30.27723 | -51.52847 | 37092 ft | 541 kts | 42° |
| 2026-04-09 23:31 | -30.22713 | -51.46351 | 37094 ft | 541 kts | 42° |
| 2026-04-09 23:32 | -30.17734 | -51.39907 | 37088 ft | 541 kts | 42° |
| 2026-04-09 23:32 | -30.12719 | -51.33424 | 37078 ft | 540 kts | 42° |
| 2026-04-09 23:33 | -30.07708 | -51.26959 | 37073 ft | 540 kts | 42° |
| 2026-04-09 23:33 | -30.02698 | -51.20505 | 37074 ft | 540 kts | 42° |
| 2026-04-09 23:34 | -29.97674 | -51.14051 | 37074 ft | 540 kts | 41° |
| 2026-04-09 23:34 | -29.92653 | -51.07613 | 37078 ft | 540 kts | 41° |
| 2026-04-09 23:35 | -29.87655 | -51.01214 | 37077 ft | 540 kts | 41° |
| 2026-04-09 23:35 | -29.82625 | -50.94786 | 37076 ft | 539 kts | 41° |
| 2026-04-09 23:36 | -29.77588 | -50.88359 | 37090 ft | 540 kts | 41° |
| 2026-04-09 23:36 | -29.72557 | -50.81950 | 37104 ft | 539 kts | 41° |
| 2026-04-09 23:37 | -29.67528 | -50.75554 | 37103 ft | 539 kts | 41° |
| 2026-04-09 23:37 | -29.62524 | -50.69201 | 37101 ft | 539 kts | 41° |
| 2026-04-09 23:38 | -29.57491 | -50.62821 | 37102 ft | 539 kts | 41° |
| 2026-04-09 23:38 | -29.52406 | -50.56531 | 37057 ft | 532 kts | 33° |
| 2026-04-09 23:39 | -29.46581 | -50.51449 | 37138 ft | 528 kts | 29° |
| 2026-04-09 23:39 | -29.40716 | -50.46387 | 37111 ft | 527 kts | 28° |
| 2026-04-09 23:40 | -29.34847 | -50.41349 | 37127 ft | 527 kts | 28° |
| 2026-04-09 23:40 | -29.28994 | -50.36333 | 37124 ft | 527 kts | 28° |
| 2026-04-09 23:41 | -29.23107 | -50.31295 | 37122 ft | 527 kts | 28° |
| 2026-04-09 23:41 | -29.20178 | -50.28791 | 36743 ft | 525 kts | 28° |
| 2026-04-09 23:41 | -29.17228 | -50.26272 | 35685 ft | 534 kts | 28° |
| 2026-04-09 23:41 | -29.14262 | -50.23740 | 34660 ft | 542 kts | 28° |
| 2026-04-09 23:42 | -29.11187 | -50.21118 | 33864 ft | 544 kts | 28° |
| 2026-04-09 23:42 | -29.08206 | -50.18574 | 33356 ft | 536 kts | 28° |
| 2026-04-09 23:42 | -29.05238 | -50.16047 | 33027 ft | 526 kts | 28° |
| 2026-04-09 23:42 | -29.02323 | -50.13566 | 32570 ft | 519 kts | 28° |
| 2026-04-09 23:43 | -28.99431 | -50.11106 | 31969 ft | 517 kts | 28° |
| 2026-04-09 23:43 | -28.96588 | -50.08690 | 31316 ft | 516 kts | 28° |
| 2026-04-09 23:43 | -28.93705 | -50.06243 | 30703 ft | 514 kts | 28° |
| 2026-04-09 23:43 | -28.90892 | -50.03855 | 30171 ft | 510 kts | 29° |
| 2026-04-09 23:44 | -28.88057 | -50.01450 | 29495 ft | 507 kts | 29° |
| 2026-04-09 23:44 | -28.85250 | -49.99071 | 28931 ft | 495 kts | 29° |
| 2026-04-09 23:44 | -28.82533 | -49.96769 | 28431 ft | 479 kts | 29° |
| 2026-04-09 23:44 | -28.79920 | -49.94559 | 27899 ft | 465 kts | 29° |
| 2026-04-09 23:45 | -28.77354 | -49.92387 | 27450 ft | 452 kts | 28° |
| 2026-04-09 23:45 | -28.74867 | -49.90285 | 26948 ft | 441 kts | 28° |
| 2026-04-09 23:45 | -28.72419 | -49.88216 | 26493 ft | 432 kts | 29° |
| 2026-04-09 23:45 | -28.70029 | -49.86200 | 25990 ft | 423 kts | 28° |
| 2026-04-09 23:46 | -28.68468 | -49.84881 | 25663 ft | 418 kts | 29° |
| 2026-04-09 23:46 | -28.66161 | -49.82933 | 25202 ft | 409 kts | 29° |
| 2026-04-09 23:46 | -28.63880 | -49.81010 | 24882 ft | 406 kts | 29° |
| 2026-04-09 23:46 | -28.61602 | -49.79092 | 24494 ft | 409 kts | 29° |
| 2026-04-09 23:47 | -28.59305 | -49.77156 | 23972 ft | 413 kts | 30° |
| 2026-04-09 23:47 | -28.56992 | -49.75206 | 23517 ft | 414 kts | 30° |
| 2026-04-09 23:47 | -28.54683 | -49.73262 | 23039 ft | 411 kts | 30° |
| 2026-04-09 23:47 | -28.52391 | -49.71334 | 22643 ft | 409 kts | 30° |
| 2026-04-09 23:48 | -28.50105 | -49.69413 | 22218 ft | 407 kts | 30° |
| 2026-04-09 23:48 | -28.47836 | -49.67499 | 21807 ft | 406 kts | 32° |
| 2026-04-09 23:48 | -28.45749 | -49.65294 | 21317 ft | 411 kts | 40° |
| 2026-04-09 23:48 | -28.43726 | -49.63004 | 20924 ft | 409 kts | 40° |
| 2026-04-09 23:49 | -28.41738 | -49.60765 | 20523 ft | 407 kts | 40° |
| 2026-04-09 23:49 | -28.39717 | -49.58492 | 20104 ft | 406 kts | 40° |
| 2026-04-09 23:49 | -28.37709 | -49.56236 | 19690 ft | 405 kts | 40° |
| 2026-04-09 23:49 | -28.35713 | -49.53993 | 19254 ft | 403 kts | 40° |
| 2026-04-09 23:50 | -28.33724 | -49.51760 | 18828 ft | 400 kts | 40° |
| 2026-04-09 23:50 | -28.31757 | -49.49553 | 18466 ft | 396 kts | 40° |
| 2026-04-09 23:50 | -28.29800 | -49.47359 | 17998 ft | 395 kts | 40° |
| 2026-04-09 23:50 | -28.27846 | -49.45169 | 17562 ft | 393 kts | 40° |
| 2026-04-09 23:51 | -28.25908 | -49.42998 | 17145 ft | 391 kts | 41° |
| 2026-04-09 23:51 | -28.23978 | -49.40837 | 16733 ft | 388 kts | 41° |
| 2026-04-09 23:51 | -28.22086 | -49.38719 | 16332 ft | 386 kts | 41° |
| 2026-04-09 23:51 | -28.20151 | -49.36555 | 15914 ft | 385 kts | 41° |
| 2026-04-09 23:52 | -28.18275 | -49.34458 | 15529 ft | 383 kts | 41° |
| 2026-04-09 23:52 | -28.16377 | -49.32337 | 15131 ft | 381 kts | 41° |
| 2026-04-09 23:52 | -28.14489 | -49.30229 | 14731 ft | 380 kts | 41° |
| 2026-04-09 23:52 | -28.12607 | -49.28129 | 14329 ft | 379 kts | 41° |
| 2026-04-09 23:53 | -28.10732 | -49.26037 | 13902 ft | 378 kts | 41° |
| 2026-04-09 23:53 | -28.08854 | -49.23943 | 13431 ft | 379 kts | 41° |
| 2026-04-09 23:53 | -28.06999 | -49.21875 | 13005 ft | 368 kts | 42° |
| 2026-04-09 23:53 | -28.05205 | -49.19878 | 12649 ft | 354 kts | 41° |
| 2026-04-09 23:54 | -28.03478 | -49.17955 | 12296 ft | 342 kts | 41° |
| 2026-04-09 23:54 | -28.01828 | -49.16120 | 11932 ft | 332 kts | 41° |
| 2026-04-09 23:54 | -28.00207 | -49.14317 | 11574 ft | 321 kts | 41° |
| 2026-04-09 23:54 | -27.98631 | -49.12565 | 11244 ft | 317 kts | 41° |
| 2026-04-09 23:55 | -27.97035 | -49.10792 | 10903 ft | 326 kts | 41° |
| 2026-04-09 23:55 | -27.95404 | -49.08980 | 10507 ft | 330 kts | 41° |
| 2026-04-09 23:55 | -27.93769 | -49.07164 | 10249 ft | 325 kts | 41° |
| 2026-04-09 23:55 | -27.92177 | -49.05398 | 10134 ft | 317 kts | 41° |
| 2026-04-09 23:56 | -27.90612 | -49.03663 | 9884 ft | 313 kts | 41° |
| 2026-04-09 23:56 | -27.89053 | -49.01934 | 9513 ft | 314 kts | 41° |
| 2026-04-09 23:56 | -27.87491 | -49.00203 | 9144 ft | 315 kts | 41° |
| 2026-04-09 23:56 | -27.85932 | -48.98475 | 8783 ft | 314 kts | 42° |
| 2026-04-09 23:57 | -27.84372 | -48.96746 | 8406 ft | 313 kts | 42° |
| 2026-04-09 23:57 | -27.82843 | -48.95053 | 8081 ft | 303 kts | 42° |
| 2026-04-09 23:57 | -27.81382 | -48.93438 | 7839 ft | 292 kts | 42° |
| 2026-04-09 23:57 | -27.79957 | -48.91861 | 7636 ft | 283 kts | 42° |
| 2026-04-09 23:58 | -27.78548 | -48.90305 | 7419 ft | 282 kts | 42° |
| 2026-04-09 23:58 | -27.77145 | -48.88754 | 7235 ft | 282 kts | 42° |
| 2026-04-09 23:58 | -27.75745 | -48.87208 | 7010 ft | 282 kts | 42° |
| 2026-04-09 23:58 | -27.74345 | -48.85662 | 6791 ft | 279 kts | 42° |
| 2026-04-09 23:59 | -27.72967 | -48.84138 | 6583 ft | 275 kts | 42° |
| 2026-04-09 23:59 | -27.71609 | -48.82641 | 6370 ft | 269 kts | 43° |
| 2026-04-09 23:59 | -27.70296 | -48.81191 | 6110 ft | 257 kts | 43° |
| 2026-04-09 23:59 | -27.69049 | -48.79817 | 5936 ft | 244 kts | 43° |
| 2026-04-10 00:00 | -27.67878 | -48.78527 | 5805 ft | 234 kts | 43° |
| 2026-04-10 00:00 | -27.66643 | -48.77347 | 5609 ft | 233 kts | 27° |
| 2026-04-10 00:00 | -27.65098 | -48.76784 | 5166 ft | 237 kts | 4° |
| 2026-04-10 00:00 | -27.63418 | -48.76701 | 4624 ft | 247 kts | 4° |
| 2026-04-10 00:01 | -27.61697 | -48.76329 | 4006 ft | 255 kts | 15° |
| 2026-04-10 00:01 | -27.60000 | -48.75687 | 3430 ft | 259 kts | 21° |
| 2026-04-10 00:01 | -27.58493 | -48.74629 | 2994 ft | 252 kts | 47° |
| 2026-04-10 00:01 | -27.57673 | -48.73030 | 3011 ft | 223 kts | 77° |
| 2026-04-10 00:02 | -27.57671 | -48.71363 | 3027 ft | 211 kts | 108° |
| 2026-04-10 00:02 | -27.58380 | -48.69953 | 2986 ft | 208 kts | 131° |
| 2026-04-10 00:02 | -27.59254 | -48.68689 | 2735 ft | 194 kts | 128° |
| 2026-04-10 00:02 | -27.59956 | -48.67509 | 2484 ft | 173 kts | 124° |
| 2026-04-10 00:03 | -27.60550 | -48.66425 | 2276 ft | 153 kts | 123° |
| 2026-04-10 00:03 | -27.61086 | -48.65425 | 2082 ft | 148 kts | 123° |
| 2026-04-10 00:03 | -27.61611 | -48.64435 | 1885 ft | 145 kts | 125° |
| 2026-04-10 00:03 | -27.62130 | -48.63470 | 1688 ft | 143 kts | 125° |
| 2026-04-10 00:04 | -27.62645 | -48.62508 | 1491 ft | 143 kts | 124° |
| 2026-04-10 00:04 | -27.63157 | -48.61550 | 1309 ft | 142 kts | 124° |
| 2026-04-10 00:04 | -27.63665 | -48.60598 | 1118 ft | 141 kts | 124° |
| 2026-04-10 00:04 | -27.64168 | -48.59646 | 956 ft | 141 kts | 122° |
| 2026-04-10 00:05 | -27.64650 | -48.58690 | 814 ft | 143 kts | 122° |
| 2026-04-10 00:05 | -27.65159 | -48.57706 | 640 ft | 143 kts | 123° |
| 2026-04-10 00:05 | -27.65673 | -48.56758 | 423 ft | 144 kts | 124° |
| 2026-04-10 00:05 | -27.66196 | -48.55794 | 213 ft | 143 kts | 123° |
| 2026-04-10 00:06 | -27.66720 | -48.54843 | 35 ft | 139 kts | 124° |
| 2026-04-10 00:06 | -27.67152 | -48.54053 | 28 ft | 87 kts | 120° |
| 2026-04-10 00:06 | -27.67398 | -48.53590 | 27 ft | 63 kts | 121° |
| 2026-04-10 00:06 | -27.67569 | -48.53273 | 29 ft | 40 kts | 122° |
| 2026-04-10 00:07 | -27.67666 | -48.53093 | 29 ft | 19 kts | 123° |
| 2026-04-10 00:07 | -27.67735 | -48.53081 | 28 ft | 8 kts | 221° |
| 2026-04-10 00:07 | -27.67793 | -48.53125 | 27 ft | 12 kts | 212° |
| 2026-04-10 00:07 | -27.67796 | -48.53211 | 27 ft | 14 kts | 301° |
| 2026-04-10 00:08 | -27.67731 | -48.53331 | 29 ft | 25 kts | 301° |
| 2026-04-10 00:08 | -27.67631 | -48.53513 | 30 ft | 29 kts | 301° |
| 2026-04-10 00:08 | -27.67535 | -48.53691 | 30 ft | 26 kts | 301° |
| 2026-04-10 00:08 | -27.67445 | -48.53860 | 30 ft | 27 kts | 301° |
| 2026-04-10 00:09 | -27.67358 | -48.54018 | 30 ft | 20 kts | 301° |
| 2026-04-10 00:09 | -27.67284 | -48.54157 | 30 ft | 18 kts | 301° |
| 2026-04-10 00:09 | -27.67219 | -48.54277 | 30 ft | 17 kts | 301° |
| 2026-04-10 00:09 | -27.67152 | -48.54402 | 31 ft | 20 kts | 301° |
| 2026-04-10 00:10 | -27.67082 | -48.54531 | 30 ft | 18 kts | 299° |
| 2026-04-10 00:10 | -27.67125 | -48.54617 | 31 ft | 14 kts | 198° |
| 2026-04-10 00:10 | -27.67202 | -48.54591 | 31 ft | 11 kts | 131° |
| 2026-04-10 00:10 | -27.67219 | -48.54564 | 31 ft | 1 kts | 121° |
| 2026-04-10 00:11 | -27.67229 | -48.54558 | 31 ft | 2 kts | 179° |
| 2026-04-10 00:11 | -27.67249 | -48.54568 | 31 ft | 5 kts | 208° |
| 2026-04-10 00:11 | -27.67261 | -48.54575 | 31 ft | 0 kts | 209° |